Главная страница
METAR-TAF:

METAR-TAF

Аэропорты :

Туношна

Ярославль, Россия

широта: 57-33-38N, долгота: 040-09-27E, высота над уровнем моря: 87 м

Текущие метеонаблюдения

Эта сводка был подготовлена 22 минут назад, в 08:30 UTC
Ветер 8 Узел от юго-западный
Температура 13°C
Влажность 72%
Давление 1020 hPa
Видимость 10 км и более
Нет облачности ниже 1500 м, и нет кучево-дождевой облачности

METAR: UUDL 180830Z 23004MPS CAVOK 13/08 Q1020 R23/010060 NOSIG RMK QFE756

Время: 11:52 (08:52 UTC)

Прогноз

Эта сводка был подготовлена 52 минут назад, в 08:00 UTC
Прогноз действительный с 18-го 09 UTC до 19-го 09 UTC
Ветер 6 Узел от юго-западный
Видимость 10 км и более
Отдельные облака на высоте 4000 фута

TAF: UUDL 180800Z 1809/1909 23003MPS 9999 SCT040

Метеонаблюдения и прогнозы для более 4000 аэропортов (сводки METAR и TAF).

Имеющиеся станции представлены на карте желтыми и красными точками.

Чтобы увидеть название станции, наведите на нее мышь.

Затем щелкните, чтобы увидеть метеонаблюдения и метеопрогнозы.

Управление картой: чтобы увеличить масштаб, щелкните зеленые кнопки с черным крестиком; чтобы уменьшить масштаб, щелкните зеленую кнопку с тире; для просмотра соседних карт щелкайте зеленые стрелки.


METAR-TAF: